Terminal Aerodrome Forecast
Issued by NWS

Home | Current Version | Previous Version | Text Only | Print | Product List | Glossary Off
Versions: 1 2 3 4 5 6 7 8 9 10 11 12 13 14 15 16 17 18

000
FTUS43 KMPX 060520
TAFRWF
TAF
KRWF 060520Z 0606/0706 26017G26KT P6SM OVC035
     FM061400 26022G35KT P6SM VCSH OVC020 PROB30 0615/0619 4SM -SHSN
      OVC015
     FM061900 28023G35KT P6SM OVC030
     FM070000 28021G31KT P6SM OVC035=

USA.gov is the U.S. government's official web portal to all federal, state and local government web resources and services.